Time;durP1;ratioP1;P1;durP2;ratioP2;P2;SDS_P1;SDS_P2;PMS_P1;PMS_P2;Temp;Humidity;BMP_temperature;BMP_pressure;BME280_temperature;BME280_humidity;BME280_pressure;Samples;Min_cycle;Max_cycle;Signal;HPM_P1;HPM_P2
2024/03/16 00:01:05;;;;;;;0.05;0.05;;;;;;;9.10;62.88;100925.56;7360845;19;19998;-60
2024/03/16 00:03:31;;;;;;;0.10;0.10;;;;;;;9.03;64.63;100920.47;7357840;19;20047;-58
2024/03/16 00:05:57;;;;;;;0.00;0.00;;;;;;;9.12;66.12;100942.91;7358323;19;20028;-60
2024/03/16 00:08:23;;;;;;;0.00;0.00;;;;;;;9.09;65.68;100955.09;7360738;19;20386;-60
2024/03/16 00:10:49;;;;;;;0.10;0.10;;;;;;;9.05;65.13;100950.81;7360224;19;19998;-60
2024/03/16 00:13:15;;;;;;;0.10;0.10;;;;;;;9.01;66.34;100956.94;7358815;19;20048;-59
2024/03/16 00:15:41;;;;;;;0.08;0.08;;;;;;;8.96;65.79;100953.53;7361536;19;20006;-59
2024/03/16 00:18:06;;;;;;;0.10;0.10;;;;;;;8.88;67.13;100960.59;7359922;19;20007;-59
2024/03/16 00:20:32;;;;;;;0.10;0.10;;;;;;;8.90;66.93;100971.81;7359009;19;20877;-59
2024/03/16 00:22:57;;;;;;;0.00;0.00;;;;;;;8.87;66.96;100973.59;7359327;19;20006;-59
2024/03/16 00:25:24;;;;;;;0.10;0.10;;;;;;;8.82;66.21;100971.94;7358721;19;20006;-59
2024/03/16 00:27:52;;;;;;;0.10;0.10;;;;;;;8.80;65.42;100971.06;7357618;19;20062;-58
2024/03/16 00:30:19;;;;;;;0.00;0.00;;;;;;;8.78;65.98;100969.38;7359605;19;20010;-59
2024/03/16 00:32:47;;;;;;;0.00;0.00;;;;;;;8.65;65.49;100960.81;7357673;19;20025;-60
2024/03/16 00:35:12;;;;;;;0.00;0.00;;;;;;;8.73;66.26;100992.00;7353945;19;20487;-59
2024/03/16 00:37:38;;;;;;;0.10;0.10;;;;;;;8.69;65.97;100992.91;7359764;19;20013;-61
2024/03/16 00:40:07;;;;;;;0.10;0.10;;;;;;;8.64;65.80;100992.09;7354641;19;20512;-60
2024/03/16 00:42:32;;;;;;;0.10;0.10;;;;;;;8.61;65.76;100997.31;7359719;19;20014;-60
2024/03/16 00:44:57;;;;;;;0.10;0.10;;;;;;;8.58;65.52;100987.81;7357311;19;20430;-60
2024/03/16 00:47:23;;;;;;;0.10;0.10;;;;;;;8.55;64.66;100988.69;7357821;19;20002;-60
2024/03/16 00:49:48;;;;;;;0.00;0.00;;;;;;;8.54;65.06;100986.09;7359916;19;20107;-60
2024/03/16 00:52:14;;;;;;;0.10;0.10;;;;;;;8.52;64.45;100985.28;7361257;19;20037;-60
2024/03/16 00:54:40;;;;;;;0.10;0.10;;;;;;;8.49;64.27;100987.88;7359521;19;20010;-59
2024/03/16 00:57:05;;;;;;;0.10;0.10;;;;;;;8.42;64.14;100981.88;7359157;19;20325;-59
2024/03/16 00:59:30;;;;;;;0.10;0.10;;;;;;;8.44;63.92;100987.94;7347394;19;20031;-60
2024/03/16 01:01:56;;;;;;;0.10;0.10;;;;;;;8.39;63.68;100987.09;7358862;19;20025;-60
2024/03/16 01:04:21;;;;;;;0.10;0.10;;;;;;;8.40;63.84;100999.25;7359072;19;20098;-60
2024/03/16 01:06:47;;;;;;;0.10;0.10;;;;;;;8.38;64.09;100995.81;7356106;19;20022;-60
2024/03/16 01:09:16;;;;;;;0.10;0.10;;;;;;;8.36;64.81;100992.34;7355952;19;20007;-59
2024/03/16 01:11:41;;;;;;;0.10;0.10;;;;;;;8.33;64.17;100998.41;7363574;19;20014;-60
2024/03/16 01:14:08;;;;;;;0.10;0.10;;;;;;;8.31;64.06;100986.28;7362488;19;20034;-60
2024/03/16 01:16:34;;;;;;;0.10;0.10;;;;;;;8.29;63.85;100993.25;7366272;19;20466;-60
2024/03/16 01:18:59;;;;;;;0.10;0.10;;;;;;;8.27;63.60;100992.41;7364819;19;20006;-59
2024/03/16 01:21:25;;;;;;;0.10;0.10;;;;;;;8.23;64.33;100993.28;7367481;19;20022;-60
2024/03/16 01:23:50;;;;;;;0.10;0.10;;;;;;;8.21;64.75;100995.03;7366455;19;20657;-59
2024/03/16 01:26:15;;;;;;;0.00;0.00;;;;;;;8.18;64.65;100992.47;7361992;19;20044;-59
2024/03/16 01:28:41;;;;;;;0.10;0.10;;;;;;;8.15;65.16;100997.69;7361393;19;20705;-59
2024/03/16 01:31:06;;;;;;;0.10;0.10;;;;;;;8.12;64.26;100987.31;7362676;19;20006;-60
2024/03/16 01:33:32;;;;;;;0.10;0.10;;;;;;;8.09;64.00;100992.53;7359937;19;20018;-60
2024/03/16 01:35:57;;;;;;;0.00;0.00;;;;;;;8.06;63.51;100994.31;7363986;19;20036;-60
2024/03/16 01:38:23;;;;;;;0.10;0.10;;;;;;;8.03;63.77;100986.50;7361260;19;20089;-59
2024/03/16 01:40:48;;;;;;;0.10;0.10;;;;;;;8.01;63.79;100990.00;7364221;19;20014;-60
2024/03/16 01:43:14;;;;;;;0.00;0.00;;;;;;;7.98;63.41;101000.44;7363295;19;20098;-58
2024/03/16 01:45:40;;;;;;;0.03;0.03;;;;;;;7.95;63.84;101000.44;7367100;19;20028;-60
2024/03/16 01:48:11;;;;;;;0.10;0.10;;;;;;;7.92;64.20;101008.28;7364022;19;20030;-60
2024/03/16 01:50:39;;;;;;;0.10;0.10;;;;;;;7.88;64.14;101007.44;7366215;19;20630;-60
2024/03/16 01:53:06;;;;;;;0.00;0.00;;;;;;;7.76;64.16;100984.97;7364070;19;20034;-59
2024/03/16 01:55:33;;;;;;;0.00;0.00;;;;;;;7.82;64.11;101010.06;7362989;19;20089;-60
2024/03/16 01:57:58;;;;;;;0.10;0.10;;;;;;;7.80;64.01;101006.59;7365695;19;20517;-60
2024/03/16 02:00:26;;;;;;;0.10;0.10;;;;;;;7.77;64.21;101011.84;7366224;19;20002;-58
2024/03/16 02:02:52;;;;;;;0.00;0.00;;;;;;;7.74;64.97;101007.50;7363721;19;20006;-60
2024/03/16 02:05:17;;;;;;;0.10;0.10;;;;;;;7.72;65.34;101005.81;7364396;19;20806;-58
2024/03/16 02:07:44;;;;;;;0.10;0.10;;;;;;;7.56;65.23;100981.66;7363874;19;20786;-60
2024/03/16 02:10:10;;;;;;;0.10;0.10;;;;;;;7.62;65.20;100991.13;7360999;19;20674;-59
2024/03/16 02:12:35;;;;;;;0.00;0.00;;;;;;;7.65;65.24;101006.69;7364598;19;20006;-60
2024/03/16 02:15:02;;;;;;;0.10;0.10;;;;;;;7.61;65.49;100999.81;7363621;19;20522;-60
2024/03/16 02:17:28;;;;;;;0.00;0.00;;;;;;;7.48;65.37;100986.88;7364594;19;20043;-60
2024/03/16 02:19:53;;;;;;;0.10;0.10;;;;;;;7.56;65.53;101004.19;7364790;19;20018;-59
2024/03/16 02:22:19;;;;;;;0.00;0.00;;;;;;;7.46;65.57;100996.41;7360914;19;20002;-59
2024/03/16 02:24:45;;;;;;;0.10;0.10;;;;;;;7.51;66.55;101010.25;7365673;19;20022;-60
2024/03/16 02:27:11;;;;;;;0.00;0.00;;;;;;;7.49;66.15;101009.38;7359166;19;20021;-60
2024/03/16 02:29:37;;;;;;;0.10;0.10;;;;;;;7.47;65.70;101013.72;7362091;19;20400;-59
2024/03/16 02:32:05;;;;;;;0.00;0.00;;;;;;;7.46;66.56;101012.00;7359464;19;20462;-59
2024/03/16 02:34:32;;;;;;;0.10;0.10;;;;;;;7.45;66.35;101002.50;7362428;19;20017;-59
2024/03/16 02:36:57;;;;;;;0.10;0.10;;;;;;;7.40;65.50;101006.84;7358488;19;20061;-59
2024/03/16 02:39:22;;;;;;;0.10;0.10;;;;;;;7.39;65.42;101005.09;7361868;19;20508;-60
2024/03/16 02:41:48;;;;;;;0.10;0.10;;;;;;;7.35;65.69;100993.03;7356719;19;19998;-59
2024/03/16 02:44:13;;;;;;;0.00;0.00;;;;;;;7.34;65.68;100993.88;7360081;19;20014;-59
2024/03/16 02:46:39;;;;;;;0.03;0.03;;;;;;;7.31;65.59;100985.25;7365595;19;20010;-58
2024/03/16 02:49:04;;;;;;;0.00;0.00;;;;;;;7.27;65.44;100981.78;7364026;19;20029;-58
2024/03/16 02:51:29;;;;;;;0.00;0.00;;;;;;;7.25;65.49;100983.53;7365206;19;20458;-59
2024/03/16 02:53:56;;;;;;;0.10;0.10;;;;;;;7.21;65.36;100979.22;7366698;19;20003;-59
2024/03/16 02:56:22;;;;;;;0.00;0.00;;;;;;;7.17;65.92;100982.69;7367319;19;20014;-60
2024/03/16 02:58:47;;;;;;;0.10;0.10;;;;;;;7.13;66.20;100987.03;7361164;19;20002;-59
2024/03/16 03:01:13;;;;;;;0.00;0.00;;;;;;;7.11;66.64;100982.72;7364640;19;20018;-60
2024/03/16 03:03:38;;;;;;;0.00;0.00;;;;;;;7.02;66.34;100968.03;7366406;19;20386;-60
2024/03/16 03:06:04;;;;;;;0.10;0.10;;;;;;;7.07;66.07;100981.00;7363680;19;20019;-60
2024/03/16 03:08:32;;;;;;;0.10;0.10;;;;;;;7.07;66.54;100986.22;7362169;19;20010;-60
2024/03/16 03:10:58;;;;;;;0.00;0.00;;;;;;;6.95;66.63;100972.41;7366694;19;20030;-60
2024/03/16 03:13:23;;;;;;;0.08;0.08;;;;;;;7.02;66.41;100974.09;7361704;19;20003;-59
2024/03/16 03:15:49;;;;;;;0.00;0.00;;;;;;;7.00;66.22;100980.19;7366777;19;20427;-59
2024/03/16 03:18:14;;;;;;;0.10;0.10;;;;;;;6.98;66.90;100976.72;7363070;19;20006;-58
2024/03/16 03:20:39;;;;;;;0.10;0.10;;;;;;;6.96;67.14;100983.66;7367396;19;20078;-59
2024/03/16 03:23:07;;;;;;;0.00;0.00;;;;;;;6.93;67.16;100974.13;7365828;19;20752;-59
2024/03/16 03:25:32;;;;;;;0.00;0.00;;;;;;;6.88;66.96;100975.88;7364534;19;20002;-59
2024/03/16 03:27:58;;;;;;;0.00;0.00;;;;;;;6.88;67.35;100982.81;7365475;19;20484;-58
2024/03/16 03:30:23;;;;;;;0.00;0.00;;;;;;;6.86;67.02;100982.81;7363266;19;20074;-60
2024/03/16 03:32:49;;;;;;;0.10;0.10;;;;;;;6.85;66.62;100990.63;7363206;19;20031;-59
2024/03/16 03:35:14;;;;;;;0.10;0.10;;;;;;;6.82;67.06;100994.06;7357036;19;20022;-59
2024/03/16 03:37:39;;;;;;;0.10;0.10;;;;;;;6.81;67.44;100999.28;7360253;19;20022;-60
2024/03/16 03:40:05;;;;;;;0.05;0.05;;;;;;;6.79;67.42;100996.66;7362789;19;20007;-57
2024/03/16 03:42:33;;;;;;;0.05;0.05;;;;;;;6.74;67.25;100988.00;7361336;19;20751;-59
2024/03/16 03:45:14;;;;;;;0.10;0.10;;;;;;;6.75;67.28;101001.00;7362715;19;20023;-60
2024/03/16 03:50:28;;;;;;;0.00;0.00;;;;;;;6.71;66.36;101009.66;7365522;19;20024;-60
2024/03/16 03:52:55;;;;;;;0.00;0.00;;;;;;;6.68;66.69;100999.28;7360054;19;20030;-59
2024/03/16 03:55:23;;;;;;;0.05;0.05;;;;;;;6.66;66.34;100995.84;7364400;19;20758;-58
2024/03/16 03:57:49;;;;;;;0.10;0.10;;;;;;;6.47;67.11;100971.66;7359266;19;20355;-59
2024/03/16 04:00:15;;;;;;;0.03;0.03;;;;;;;6.60;66.85;100995.00;7363032;19;20014;-60
2024/03/16 04:02:41;;;;;;;0.00;0.00;;;;;;;6.59;67.08;100988.94;7363188;19;20007;-59
2024/03/16 04:05:06;;;;;;;0.10;0.10;;;;;;;6.58;67.27;100986.31;7364295;19;20034;-60
2024/03/16 04:07:32;;;;;;;0.10;0.10;;;;;;;6.57;67.10;100997.56;7361712;19;20037;-59
2024/03/16 04:09:59;;;;;;;0.05;0.05;;;;;;;6.54;67.31;100994.97;7362249;19;20024;-59
2024/03/16 04:12:24;;;;;;;0.00;0.00;;;;;;;6.52;67.06;100997.59;7358286;19;20002;-60
2024/03/16 04:14:50;;;;;;;0.10;0.10;;;;;;;6.49;67.47;100998.47;7361605;19;20021;-58
2024/03/16 04:17:15;;;;;;;0.00;0.00;;;;;;;6.47;67.10;100989.81;7339669;19;20029;-58
2024/03/16 04:19:40;;;;;;;0.10;0.10;;;;;;;6.45;66.85;100994.16;7364043;19;20918;-59
2024/03/16 04:22:06;;;;;;;0.00;0.00;;;;;;;6.43;66.88;100987.22;7363617;19;20018;-60
2024/03/16 04:24:31;;;;;;;0.10;0.10;;;;;;;6.40;67.19;100993.28;7365724;19;20014;-60
2024/03/16 04:26:57;;;;;;;0.08;0.08;;;;;;;6.35;67.96;100979.44;7361668;19;20526;-60
2024/03/16 04:29:22;;;;;;;0.08;0.08;;;;;;;6.35;67.71;100982.06;7363125;19;19998;-60
2024/03/16 04:31:47;;;;;;;0.00;0.00;;;;;;;6.31;67.68;100987.25;7362967;19;19995;-59
2024/03/16 04:34:13;;;;;;;0.00;0.00;;;;;;;6.30;68.20;100990.69;7363975;19;20086;-60
2024/03/16 04:36:38;;;;;;;0.10;0.10;;;;;;;6.28;68.14;100988.09;7352551;19;20018;-59
2024/03/16 04:39:04;;;;;;;0.00;0.00;;;;;;;6.12;68.10;100971.66;7365228;19;20708;-59
2024/03/16 04:41:29;;;;;;;0.00;0.00;;;;;;;6.10;68.98;100952.66;7363146;19;20010;-60
2024/03/16 04:43:54;;;;;;;0.13;0.13;;;;;;;6.23;69.11;100979.44;7357915;19;20003;-59
2024/03/16 04:46:20;;;;;;;0.00;0.00;;;;;;;6.23;69.22;100979.44;7370091;19;20007;-60
2024/03/16 04:48:45;;;;;;;0.08;0.08;;;;;;;6.21;69.13;100983.78;7362741;19;20010;-60
2024/03/16 04:51:14;;;;;;;0.10;0.10;;;;;;;6.18;69.25;100981.19;7368579;19;20555;-58
2024/03/16 04:53:39;;;;;;;0.00;0.00;;;;;;;6.20;69.18;100987.25;7372064;19;20029;-58
2024/03/16 04:56:05;;;;;;;0.10;0.10;;;;;;;6.19;69.33;100993.31;7369229;19;20765;-60
2024/03/16 04:58:30;;;;;;;0.10;0.10;;;;;;;6.18;69.47;100981.19;7363385;19;20015;-60
2024/03/16 05:00:58;;;;;;;0.10;0.10;;;;;;;6.18;69.69;100986.34;7370593;19;20479;-60
2024/03/16 05:03:23;;;;;;;0.05;0.05;;;;;;;6.18;70.09;100991.53;7368657;19;20014;-59
2024/03/16 05:05:51;;;;;;;0.10;0.10;;;;;;;6.18;69.82;100991.53;7367059;19;20006;-58
2024/03/16 05:08:17;;;;;;;0.00;0.00;;;;;;;6.18;70.13;100983.75;7367994;19;20105;-59
2024/03/16 05:10:42;;;;;;;0.00;0.00;;;;;;;6.18;70.26;100971.69;7370021;19;20115;-59
2024/03/16 05:13:07;;;;;;;0.10;0.10;;;;;;;6.18;70.23;100978.59;7368122;19;20010;-59
2024/03/16 05:15:33;;;;;;;0.10;0.10;;;;;;;6.20;70.08;100976.88;7368904;19;20467;-59
2024/03/16 05:17:59;;;;;;;0.10;0.10;;;;;;;6.16;70.37;100967.34;7370571;19;20010;-60
2024/03/16 05:20:24;;;;;;;0.10;0.10;;;;;;;6.24;70.26;100981.19;7369503;19;20006;-59
2024/03/16 05:22:49;;;;;;;0.00;0.00;;;;;;;6.25;70.45;100969.97;7369579;19;20452;-60
2024/03/16 05:25:15;;;;;;;0.10;0.10;;;;;;;6.28;70.51;100962.16;7360009;19;19999;-59
2024/03/16 05:27:41;;;;;;;0.10;0.10;;;;;;;6.30;70.79;100960.44;7371163;19;20014;-59
2024/03/16 05:30:07;;;;;;;0.00;0.00;;;;;;;6.33;70.22;100975.13;7366597;19;20014;-59
2024/03/16 05:32:32;;;;;;;0.10;0.10;;;;;;;6.35;70.86;100976.00;7367510;19;20010;-60
2024/03/16 05:34:58;;;;;;;0.10;0.10;;;;;;;6.37;70.61;100980.31;7365169;19;20007;-59
2024/03/16 05:37:23;;;;;;;0.10;0.10;;;;;;;6.39;70.85;100976.00;7366176;19;20419;-60
2024/03/16 05:39:49;;;;;;;0.10;0.10;;;;;;;6.41;71.07;100969.06;7366448;19;20332;-60
2024/03/16 05:42:14;;;;;;;0.00;0.00;;;;;;;6.43;71.10;100972.50;7369753;19;20018;-59
2024/03/16 05:44:39;;;;;;;0.10;0.10;;;;;;;6.45;70.68;100960.41;7370577;19;20018;-60
2024/03/16 05:47:06;;;;;;;0.10;0.10;;;;;;;6.45;70.49;100955.22;7368511;19;20003;-58
2024/03/16 05:49:32;;;;;;;0.10;0.10;;;;;;;6.49;70.53;100966.47;7365317;19;20037;-58
2024/03/16 05:51:57;;;;;;;0.10;0.10;;;;;;;6.50;70.46;100958.69;7360938;19;21146;-60
2024/03/16 05:54:23;;;;;;;0.10;0.10;;;;;;;6.54;70.77;100958.66;7369572;19;20023;-59
2024/03/16 05:56:49;;;;;;;0.10;0.10;;;;;;;6.57;70.84;100950.88;7366474;19;20021;-58
2024/03/16 05:59:15;;;;;;;0.05;0.05;;;;;;;6.63;70.55;100953.44;7368095;19;20007;-59
2024/03/16 06:01:41;;;;;;;0.10;0.10;;;;;;;6.66;70.51;100951.72;7367541;19;20007;-59
2024/03/16 06:04:07;;;;;;;0.03;0.03;;;;;;;6.72;70.68;100953.44;7370385;19;20047;-59
2024/03/16 06:06:32;;;;;;;0.00;0.00;;;;;;;6.77;70.47;100941.31;7367953;19;20070;-57
2024/03/16 06:08:58;;;;;;;0.10;0.10;;;;;;;6.81;70.70;100939.56;7365342;19;20010;-57
2024/03/16 06:11:23;;;;;;;0.10;0.10;;;;;;;6.88;70.56;100944.72;7368834;19;20745;-59
2024/03/16 06:13:50;;;;;;;0.10;0.10;;;;;;;6.90;70.79;100947.34;7368622;19;20002;-59
2024/03/16 06:16:15;;;;;;;0.10;0.10;;;;;;;6.97;71.01;100951.63;7365679;19;20010;-59
2024/03/16 06:18:46;;;;;;;0.05;0.05;;;;;;;7.05;70.80;100952.47;7361904;19;20506;-59
2024/03/16 06:21:12;;;;;;;0.10;0.10;;;;;;;7.07;70.53;100949.84;7366470;19;20457;-60
2024/03/16 06:23:37;;;;;;;0.00;0.00;;;;;;;7.16;70.60;100949.81;7361018;19;20003;-59
2024/03/16 06:26:03;;;;;;;0.10;0.10;;;;;;;7.21;70.68;100958.44;7366827;19;20026;-60
2024/03/16 06:28:29;;;;;;;0.00;0.00;;;;;;;7.26;70.39;100957.56;7366224;19;20057;-59
2024/03/16 06:31:07;;;;;;;0.10;0.10;;;;;;;7.25;70.90;100952.38;7365774;19;20010;-58
2024/03/16 06:33:33;;;;;;;0.00;0.00;;;;;;;7.38;70.69;100967.00;7355299;19;20015;-60
2024/03/16 06:35:58;;;;;;;0.00;0.00;;;;;;;7.36;71.20;100940.19;7366759;19;20025;-60
2024/03/16 06:38:24;;;;;;;0.03;0.03;;;;;;;7.49;71.24;100949.63;7363804;19;19995;-60
2024/03/16 06:40:49;;;;;;;0.10;0.10;;;;;;;7.56;71.01;100947.00;7368464;19;20002;-59
2024/03/16 06:43:15;;;;;;;0.10;0.10;;;;;;;7.62;70.85;100950.41;7365684;19;20003;-60
2024/03/16 06:45:41;;;;;;;0.00;0.00;;;;;;;7.68;70.97;100949.50;7369144;19;20014;-60
2024/03/16 06:48:07;;;;;;;0.03;0.03;;;;;;;7.73;71.01;100943.41;7364791;19;20762;-59
2024/03/16 06:50:32;;;;;;;0.10;0.10;;;;;;;7.78;70.73;100941.63;7363537;19;20014;-58
2024/03/16 06:52:59;;;;;;;0.10;0.10;;;;;;;7.82;70.69;100937.28;7366736;19;20034;-58
2024/03/16 06:55:25;;;;;;;0.00;0.00;;;;;;;7.91;70.37;100955.41;7363118;19;20014;-59
2024/03/16 06:57:50;;;;;;;0.10;0.10;;;;;;;7.95;70.85;100946.69;7361506;19;20074;-59
2024/03/16 07:00:15;;;;;;;0.10;0.10;;;;;;;8.01;70.89;100949.25;7364261;19;20910;-59
2024/03/16 07:02:41;;;;;;;0.05;0.05;;;;;;;8.05;70.79;100945.75;7365563;19;20556;-60
2024/03/16 07:05:09;;;;;;;0.10;0.10;;;;;;;8.11;71.16;100947.44;7363255;19;20018;-58
2024/03/16 07:07:35;;;;;;;0.10;0.10;;;;;;;8.17;70.69;100950.00;7366514;19;20007;-60
2024/03/16 07:10:01;;;;;;;0.10;0.10;;;;;;;8.22;70.62;100944.75;7365118;19;20009;-60
2024/03/16 07:12:26;;;;;;;0.10;0.10;;;;;;;8.27;71.10;100940.38;7359701;19;20029;-59
2024/03/16 07:14:51;;;;;;;0.10;0.10;;;;;;;8.34;70.90;100947.22;7364405;19;20018;-60
2024/03/16 07:17:17;;;;;;;0.10;0.10;;;;;;;8.38;70.88;100938.56;7361276;19;20015;-60
2024/03/16 07:19:42;;;;;;;0.10;0.10;;;;;;;8.43;70.98;100939.38;7367732;19;20011;-59
2024/03/16 07:22:08;;;;;;;0.10;0.10;;;;;;;8.49;70.81;100934.09;7362043;19;20010;-60
2024/03/16 07:24:34;;;;;;;0.03;0.03;;;;;;;8.54;71.07;100934.91;7365520;19;20006;-60
2024/03/16 07:26:59;;;;;;;0.10;0.10;;;;;;;8.60;71.37;100931.38;7355724;19;20014;-59
2024/03/16 07:29:25;;;;;;;0.05;0.05;;;;;;;8.63;71.50;100928.75;7363305;19;20046;-60
2024/03/16 07:31:50;;;;;;;0.10;0.10;;;;;;;8.60;70.90;100922.72;7361547;19;20006;-60
2024/03/16 07:34:16;;;;;;;0.00;0.00;;;;;;;8.75;70.80;100930.34;7365170;19;20461;-58
2024/03/16 07:36:42;;;;;;;0.00;0.00;;;;;;;8.79;71.12;100929.44;7363409;19;19994;-60
2024/03/16 07:39:11;;;;;;;0.10;0.10;;;;;;;8.55;71.21;100881.97;7362248;19;20046;-59
2024/03/16 07:41:36;;;;;;;0.08;0.08;;;;;;;8.86;71.01;100928.47;7361689;19;20081;-59
2024/03/16 07:44:02;;;;;;;0.10;0.10;;;;;;;8.84;71.07;100912.00;7363642;19;20017;-58
2024/03/16 07:46:28;;;;;;;0.10;0.10;;;;;;;8.96;71.23;100932.69;7363133;19;20025;-60
2024/03/16 07:48:56;;;;;;;0.10;0.10;;;;;;;9.00;71.14;100929.16;7365771;19;20506;-60
2024/03/16 07:51:28;;;;;;;0.10;0.10;;;;;;;9.05;71.34;100924.75;7358578;19;20018;-60
2024/03/16 07:53:54;;;;;;;0.10;0.10;;;;;;;9.09;71.17;100921.25;7360668;19;20007;-59
2024/03/16 07:56:19;;;;;;;0.00;0.00;;;;;;;9.00;71.16;100903.13;7356371;19;20050;-60
2024/03/16 07:58:45;;;;;;;0.10;0.10;;;;;;;9.13;71.53;100909.03;7365449;19;20062;-61
2024/03/16 08:01:12;;;;;;;0.10;0.10;;;;;;;9.21;71.65;100917.59;7357415;19;20573;-60
2024/03/16 08:03:38;;;;;;;0.10;0.10;;;;;;;9.26;71.59;100922.75;7362469;19;20023;-59
2024/03/16 08:06:07;;;;;;;0.10;0.10;;;;;;;9.29;71.37;100914.91;7362725;19;20723;-60
2024/03/16 08:08:33;;;;;;;0.00;0.00;;;;;;;9.35;71.85;100914.81;7363582;19;20006;-59
2024/03/16 08:10:58;;;;;;;0.10;0.10;;;;;;;9.40;71.43;100917.34;7360722;19;20078;-60
2024/03/16 08:13:24;;;;;;;0.10;0.10;;;;;;;9.44;71.83;100908.63;7364188;19;20017;-60
2024/03/16 08:15:49;;;;;;;0.10;0.10;;;;;;;9.48;71.91;100911.16;7363140;19;20007;-60
2024/03/16 08:18:14;;;;;;;0.10;0.10;;;;;;;9.53;71.69;100913.66;7362310;19;20028;-60
2024/03/16 08:20:40;;;;;;;0.10;0.10;;;;;;;9.58;71.33;100907.53;7367094;19;20011;-60
2024/03/16 08:23:05;;;;;;;0.10;0.10;;;;;;;9.62;71.56;100914.38;7368047;19;20003;-60
2024/03/16 08:25:33;;;;;;;0.00;0.00;;;;;;;9.68;71.52;100908.25;7367228;19;20471;-59
2024/03/16 08:27:58;;;;;;;0.10;0.10;;;;;;;9.73;71.39;100900.31;7367197;19;20006;-60
2024/03/16 08:30:25;;;;;;;0.10;0.10;;;;;;;9.72;71.22;100893.38;7370311;19;20034;-61
2024/03/16 08:32:51;;;;;;;0.10;0.10;;;;;;;9.82;71.19;100900.19;7363933;19;20026;-60
2024/03/16 08:35:17;;;;;;;0.00;0.00;;;;;;;9.78;71.25;100888.06;7369117;19;20040;-60
2024/03/16 08:37:42;;;;;;;0.10;0.10;;;;;;;9.88;71.50;100903.56;7366648;19;20014;-60
2024/03/16 08:40:11;;;;;;;0.10;0.10;;;;;;;9.91;71.34;100900.03;7366191;19;20648;-60
2024/03/16 08:42:39;;;;;;;0.10;0.10;;;;;;;9.95;71.69;100899.09;7371699;19;20482;-59
2024/03/16 08:45:05;;;;;;;;;;;;;;;10.02;69.84;100903.31;7372367;19;20497;-60
2024/03/16 08:47:30;;;;;;;0.10;0.10;;;;;;;9.99;70.98;100897.31;7371740;19;19907;-60
2024/03/16 08:49:56;;;;;;;0.10;0.10;;;;;;;10.00;71.28;100905.09;7362780;19;20025;-60
2024/03/16 08:52:23;;;;;;;0.10;0.10;;;;;;;10.00;71.36;100892.06;7371564;19;20013;-60
2024/03/16 08:54:48;;;;;;;0.00;0.00;;;;;;;10.01;71.20;100896.38;7365249;19;20002;-61
2024/03/16 08:57:13;;;;;;;0.03;0.03;;;;;;;10.00;71.10;100889.44;7367991;19;20028;-59
2024/03/16 08:59:39;;;;;;;0.10;0.10;;;;;;;10.01;71.39;100899.00;7366795;19;20618;-60
2024/03/16 09:02:05;;;;;;;0.10;0.10;;;;;;;10.03;71.36;100894.59;7370029;19;20010;-60
2024/03/16 09:04:32;;;;;;;0.10;0.10;;;;;;;10.03;71.60;100889.38;7363553;19;20014;-59
2024/03/16 09:06:57;;;;;;;0.10;0.10;;;;;;;10.02;71.63;100892.88;7370545;19;20034;-61
2024/03/16 09:09:23;;;;;;;0.10;0.10;;;;;;;10.06;71.59;100894.56;7368074;19;19995;-59
2024/03/16 09:11:49;;;;;;;0.10;0.10;;;;;;;10.07;71.69;100891.03;7367555;19;20003;-58
2024/03/16 09:14:14;;;;;;;0.10;0.10;;;;;;;10.06;71.61;100888.47;7368951;19;20022;-59
2024/03/16 09:16:43;;;;;;;0.10;0.10;;;;;;;10.05;71.91;100882.41;7365739;19;20012;-61
2024/03/16 09:19:08;;;;;;;0.10;0.10;;;;;;;10.06;71.92;100878.91;7370101;19;20010;-59
2024/03/16 09:21:34;;;;;;;0.03;0.03;;;;;;;10.04;71.77;100879.81;7368294;19;20086;-59
2024/03/16 09:23:59;;;;;;;0.10;0.10;;;;;;;10.05;71.70;100879.78;7370163;19;19999;-57
2024/03/16 09:26:24;;;;;;;0.10;0.10;;;;;;;10.04;72.52;100882.44;7367851;19;20007;-59
2024/03/16 09:28:51;;;;;;;0.10;0.10;;;;;;;10.04;72.13;100885.91;7366207;19;20066;-60
2024/03/16 09:31:16;;;;;;;0.10;0.10;;;;;;;10.04;72.43;100864.16;7364348;19;20026;-60
2024/03/16 09:33:42;;;;;;;0.10;0.10;;;;;;;10.00;72.29;100865.97;7367301;19;20014;-60
2024/03/16 09:36:07;;;;;;;0.10;0.10;;;;;;;10.03;71.72;100881.53;7370097;19;20415;-60
2024/03/16 09:38:33;;;;;;;0.10;0.10;;;;;;;10.02;72.50;100872.00;7366349;19;20491;-60
2024/03/16 09:40:59;;;;;;;0.10;0.10;;;;;;;9.97;72.61;100852.97;7367493;19;20007;-60
2024/03/16 09:43:25;;;;;;;0.10;0.10;;;;;;;10.00;73.14;100852.94;7368391;19;20114;-60
2024/03/16 09:45:53;;;;;;;0.10;0.10;;;;;;;10.00;73.12;100845.09;7370383;19;20025;-59
2024/03/16 09:48:19;;;;;;;0.10;0.10;;;;;;;10.02;72.92;100845.91;7366869;19;20030;-59
2024/03/16 09:50:47;;;;;;;0.05;0.05;;;;;;;10.02;73.37;100845.06;7365469;19;20017;-60
2024/03/16 09:53:32;;;;;;;0.10;0.10;;;;;;;9.96;72.34;100840.81;7367597;19;20018;-60
2024/03/16 09:56:00;;;;;;;0.10;0.10;;;;;;;10.05;73.11;100848.47;7367445;19;20399;-60
2024/03/16 09:58:28;;;;;;;0.10;0.10;;;;;;;10.05;73.48;100845.88;7366362;19;20015;-61
2024/03/16 10:00:54;;;;;;;0.10;0.10;;;;;;;10.08;72.98;100840.56;7369763;19;20011;-61
2024/03/16 10:03:21;;;;;;;0.10;0.10;;;;;;;10.04;72.92;100835.47;7359536;19;20439;-60
2024/03/16 10:05:47;;;;;;;0.10;0.10;;;;;;;10.11;73.42;100845.75;7368820;19;20570;-59
2024/03/16 10:08:20;;;;;;;0.20;0.20;;;;;;;10.07;72.89;100823.22;7367625;19;20443;-59
2024/03/16 10:10:49;;;;;;;0.10;0.10;;;;;;;10.14;73.05;100822.22;7368301;19;20360;-60
2024/03/16 10:13:17;;;;;;;0.10;0.10;;;;;;;10.20;73.18;100823.00;7365511;19;20015;-60
2024/03/16 10:15:45;;;;;;;0.10;0.10;;;;;;;10.11;72.68;100808.38;7368854;19;20023;-60
2024/03/16 10:18:14;;;;;;;0.10;0.10;;;;;;;10.24;72.88;100824.66;7363690;19;20019;-61
2024/03/16 10:20:40;;;;;;;0.10;0.10;;;;;;;10.30;73.71;100824.56;7366589;19;20008;-61
2024/03/16 10:23:15;;;;;;;0.10;0.10;;;;;;;10.35;73.56;100822.72;7364589;19;19999;-61
2024/03/16 10:25:46;;;;;;;0.10;0.10;;;;;;;10.40;73.01;100823.50;7368725;19;20631;-61
2024/03/16 10:28:15;;;;;;;0.10;0.10;;;;;;;10.41;74.13;100806.94;7363326;19;19994;-61
2024/03/16 10:30:45;;;;;;;0.10;0.10;;;;;;;10.49;73.67;100818.09;7369337;19;20014;-61
2024/03/16 10:33:11;;;;;;;0.10;0.10;;;;;;;10.49;73.77;100810.25;7365735;19;20021;-62
2024/03/16 10:35:39;;;;;;;0.10;0.10;;;;;;;10.55;73.71;100815.34;7366107;19;19999;-62
2024/03/16 10:38:14;;;;;;;0.10;0.10;;;;;;;10.62;74.06;100814.31;7359900;19;22558;-61
2024/03/16 10:40:43;;;;;;;0.10;0.10;;;;;;;10.68;73.99;100809.84;7360064;19;20783;-62
2024/03/16 10:43:16;;;;;;;0.15;0.15;;;;;;;10.75;73.83;100801.03;7363388;19;19998;-61
2024/03/16 10:45:45;;;;;;;0.10;0.10;;;;;;;10.67;73.90;100779.41;7365808;19;20010;-62
2024/03/16 10:48:18;;;;;;;0.10;0.10;;;;;;;10.87;73.70;100801.59;7362973;19;20232;-62
2024/03/16 10:50:46;;;;;;;0.10;0.10;;;;;;;10.89;73.83;100799.78;7366694;19;20465;-62
2024/03/16 10:53:13;;;;;;;0.10;0.10;;;;;;;10.87;73.85;100792.91;7358550;19;20010;-62
2024/03/16 10:55:40;;;;;;;0.10;0.10;;;;;;;10.99;73.68;100805.66;7364525;19;20011;-62
2024/03/16 10:58:25;;;;;;;0.10;0.10;;;;;;;11.08;73.43;100795.00;7362851;19;20465;-62
2024/03/16 11:01:07;;;;;;;0.10;0.10;;;;;;;11.14;74.06;100794.88;7364672;19;20455;-62
2024/03/16 11:03:36;;;;;;;0.10;0.10;;;;;;;11.18;73.56;100796.50;7359024;19;20277;-62
2024/03/16 11:06:02;;;;;;;0.10;0.10;;;;;;;11.22;73.30;100792.09;7362233;19;20002;-62
2024/03/16 11:08:42;;;;;;;0.13;0.13;;;;;;;11.26;73.37;100798.09;7364374;19;20009;-63
2024/03/16 11:11:08;;;;;;;0.10;0.10;;;;;;;11.25;73.43;100791.13;7364769;19;20478;-63
2024/03/16 11:13:34;;;;;;;0.10;0.10;;;;;;;11.25;73.45;100802.44;7363448;19;21112;-63
2024/03/16 11:16:30;;;;;;;0.10;0.10;;;;;;;11.29;73.35;100777.09;7361945;19;20002;-62
2024/03/16 11:19:07;;;;;;;0.10;0.10;;;;;;;11.29;73.58;100775.34;7363045;19;20476;-62
2024/03/16 11:21:37;;;;;;;0.10;0.10;;;;;;;11.16;73.79;100751.28;7364314;19;19998;-62
2024/03/16 11:24:10;;;;;;;0.10;0.10;;;;;;;11.28;73.60;100798.91;7360842;19;20003;-62
2024/03/16 11:26:39;;;;;;;0.10;0.10;;;;;;;11.27;73.73;100752.75;7364130;19;20512;-62
2024/03/16 11:29:14;;;;;;;0.10;0.10;;;;;;;11.23;74.07;100753.72;7360639;19;20010;-63
2024/03/16 11:31:41;;;;;;;0.10;0.10;;;;;;;11.23;73.97;100748.50;7364791;19;20014;-63